KBTP/BTP METAR and TAF weather

Enter ICAO airport designator
Station Type Date Time Source
KBTP METAR 2023/02/06 18:56 UTC NOAA

KBTP 061856Z AUTO 01004KT 10SM OVC018 01/M03 A3023 RMK AO2 SLP252 T00111033 FZRANO TSNO


Station Type Date Time Source
KBTP Decoded METAR 2023/02/06 18:56 UTC NOAA

Butler, Butler County Airport/K W Scholter Field, PA, United States (KBTP) 40-47N 079-57W
Feb 06, 2023 - 01:56 PM EST / 2023.02.06 1856 UTC
Wind: from the N (010 degrees) at 5 MPH (4 KT):0
Visibility: 10 mile(s):0
Sky conditions: overcast
Temperature: 34.0 F (1.1 C)
Windchill: 30 F (-1 C):1
Dew Point: 26.1 F (-3.3 C)
Relative Humidity: 72%
Pressure (altimeter): 30.23 in. Hg (1023 hPa)
ob: KBTP 061856Z AUTO 01004KT 10SM OVC018 01/M03 A3023 RMK AO2 SLP252 T00111033 FZRANO TSNO
cycle: 19

Station Type Date Time Source
KBTP TAF UTC NOAA

Error!

Example: see airport list